Smithers, British Columbia

10:08 AM PDT on May 23, 2017 (GMT -0700)
Smithers | | Change Station

Elev 1716 ft 54.82 °N, 127.18 °W | Updated 12 minutes ago

Light Rain
Light Rain
52 °F
Feels Like 52 °F
N
6
Wind Variable Wind from SE

Today
High -- | Low -- °F
--% Chance of Precip.
Yesterday
High -- | Low -- °F
Precip. -- in
Pressure 29.75 in
Visibility 20.0 miles
Clouds Few 800 ft
Scattered Clouds 4000 ft
Overcast 6000 ft
Dew Point 46 °F
Humidity 82%
Rainfall 0.00 in
Snow Depth Not available.
5:08 AM 9:43 PM
Waning Crescent, 7% visible
SPECI CYYD 231656Z 14005KT 20SM -RA FEW008 SCT040 OVC060 11/08 A2973 RMK SF1SC2SC5 SLP074 DENSITY ALT 1800FT
Pressure 29.75 in
Visibility 20.0 miles
Clouds Few 800 ft
Scattered Clouds 4000 ft
Overcast 6000 ft
Dew Point 46 °F
Humidity 82%
Rainfall 0.00 in
Snow Depth Not available.
5:08 AM 9:43 PM
Waning Crescent, 7% visible
SPECI CYYD 231656Z 14005KT 20SM -RA FEW008 SCT040 OVC060 11/08 A2973 RMK SF1SC2SC5 SLP074 DENSITY ALT 1800FT

Get Severe Weather Alerts

Thanks for signing up!

Be on the lookout for a verification email in your inbox.

You'll start receiving the daily forecast at 6 AM.

×

10-Day Weather Forecast

Almanac

Astronomy

May. 23, 2017 Rise Set
Actual Time
Civil Twilight
Nautical Twilight
Astronomical Twilight
Moon
Length of Visible Light
Length of Day
Tomorrow will be .
, % of the Moon is Illuminated

Today's Extremes

Country Highs Country Lows

Community

WunderPhotos

Category 6

Welcome to Category 6. This is the collective home for Weather Underground's featured writeups by Dr. Jeff Masters (right), Bob Henson (left), Chris Burt, and other regular contributors.

Nearby

Air Quality

  Air Quality AQ Index Pollutant
Not available.

Snow Depth

Station Depth Elevation

Earthquake Activity

City Distance Mag. Time & Date
Minimum magnitude displayed is 2.5.

Coastal Water Temperatures

Place Temperature

Stations

Nearby Weather Stations

Station Location Temp. Windchill Dew Point Humidity Wind Precip. Elev Updated Type
                   

Watches & Warnings

There are currently no watches in effect.